createdAt,value
2017-05-02T00:02:17.760Z,11.30
2017-05-02T00:04:46.811Z,10.80
2017-05-02T00:07:15.862Z,11.40
2017-05-02T00:09:44.906Z,10.90
2017-05-02T00:12:14.709Z,11.00
2017-05-02T00:14:44.499Z,10.90
2017-05-02T00:17:13.621Z,10.90
2017-05-02T00:19:43.418Z,10.80
2017-05-02T00:22:12.478Z,11.20
2017-05-02T00:24:41.521Z,10.80
2017-05-02T00:27:11.333Z,11.20
2017-05-02T00:29:41.124Z,11.00
2017-05-02T00:32:10.212Z,11.10
2017-05-02T00:34:39.265Z,10.90
2017-05-02T00:37:08.330Z,11.20
2017-05-02T00:39:38.126Z,11.20
2017-05-02T00:42:07.251Z,11.30
2017-05-02T00:44:37.030Z,10.80
2017-05-02T00:47:06.193Z,10.70
2017-05-02T00:49:35.270Z,10.90
2017-05-02T00:52:04.309Z,10.80
2017-05-02T00:54:33.382Z,10.80
2017-05-02T00:57:02.523Z,10.80
2017-05-02T00:59:32.325Z,11.00
2017-05-02T01:02:02.118Z,11.20
2017-05-02T01:04:31.190Z,10.90
2017-05-02T01:07:00.235Z,10.90
2017-05-02T01:09:30.034Z,10.80
2017-05-02T01:11:59.142Z,10.90
2017-05-02T01:14:28.949Z,10.90
2017-05-02T01:16:58.016Z,10.80
2017-05-02T01:19:27.076Z,10.90
2017-05-02T01:21:56.119Z,10.80
2017-05-02T01:24:25.230Z,10.90
2017-05-02T01:26:55.021Z,10.70
2017-05-02T01:29:24.078Z,10.80
2017-05-02T01:31:53.119Z,10.80
2017-05-02T01:34:22.226Z,10.80
2017-05-02T01:36:52.893Z,10.80
2017-05-02T01:39:22.050Z,10.90
2017-05-02T01:41:51.848Z,10.80
2017-05-02T01:44:20.918Z,11.30
2017-05-02T01:46:50.052Z,11.30
2017-05-02T01:49:20.805Z,11.20
2017-05-02T01:51:50.574Z,11.20
2017-05-02T01:54:19.813Z,11.10
2017-05-02T01:56:49.587Z,11.10
2017-05-02T01:59:18.658Z,11.20
2017-05-02T02:01:47.806Z,11.20
2017-05-02T02:04:17.621Z,11.20
2017-05-02T02:06:46.999Z,11.30
2017-05-02T02:09:16.071Z,10.90
2017-05-02T02:11:45.115Z,10.80
2017-05-02T02:14:14.179Z,10.80
2017-05-02T02:16:43.230Z,10.90
2017-05-02T02:19:12.310Z,10.80
2017-05-02T02:21:41.399Z,10.70
2017-05-02T02:24:11.221Z,10.70
2017-05-02T02:26:41.012Z,10.40
2017-05-02T02:29:10.801Z,10.60
2017-05-02T02:31:39.863Z,10.60
2017-05-02T02:34:08.903Z,10.60
2017-05-02T02:36:38.703Z,10.50
2017-05-02T02:39:07.776Z,10.50
2017-05-02T02:41:36.825Z,10.40
2017-05-02T02:44:05.878Z,10.50
2017-05-02T02:46:34.941Z,10.50
2017-05-02T02:49:03.995Z,10.60
2017-05-02T02:51:33.819Z,10.50
2017-05-02T02:54:03.589Z,10.60
2017-05-02T02:56:32.668Z,10.40
2017-05-02T02:59:01.814Z,10.30
2017-05-02T03:01:31.609Z,10.50
2017-05-02T03:04:00.653Z,10.60
2017-05-02T03:06:29.708Z,10.40
2017-05-02T03:08:59.523Z,10.50
2017-05-02T03:11:29.325Z,10.40
2017-05-02T03:13:59.134Z,10.40
2017-05-02T03:16:28.934Z,10.40
2017-05-02T03:18:58.038Z,10.40
2017-05-02T03:21:27.839Z,10.60
2017-05-02T03:23:56.885Z,10.50
2017-05-02T03:26:25.941Z,10.50
2017-05-02T03:28:55.730Z,10.80
2017-05-02T03:31:24.793Z,10.80
2017-05-02T03:33:53.837Z,10.90
2017-05-02T03:36:23.637Z,10.70
2017-05-02T03:38:52.698Z,10.80
2017-05-02T03:41:21.756Z,10.80
2017-05-02T03:43:50.800Z,10.90
2017-05-02T03:46:19.869Z,10.70
2017-05-02T03:48:48.915Z,10.90
2017-05-02T03:51:17.982Z,10.50
2017-05-02T03:53:47.066Z,10.40
2017-05-02T03:56:16.125Z,10.30
2017-05-02T03:58:45.177Z,10.30
2017-05-02T04:01:14.246Z,10.00
2017-05-02T04:03:43.315Z,10.20
2017-05-02T04:06:13.112Z,10.10
2017-05-02T04:08:42.924Z,10.10
2017-05-02T04:11:12.727Z,10.20
2017-05-02T04:13:42.555Z,10.40
2017-05-02T04:16:12.343Z,10.50
2017-05-02T04:18:42.126Z,10.50
2017-05-02T04:21:11.197Z,10.40
2017-05-02T04:23:40.249Z,10.70
2017-05-02T04:26:09.312Z,10.50
2017-05-02T04:28:38.349Z,10.40
2017-05-02T04:31:07.449Z,10.50
2017-05-02T04:33:36.518Z,10.50
2017-05-02T04:36:05.634Z,10.80
2017-05-02T04:38:35.413Z,10.40
2017-05-02T04:41:04.530Z,10.60
2017-05-02T04:43:34.330Z,10.50
2017-05-02T04:46:03.379Z,10.50
2017-05-02T04:48:32.449Z,10.00
2017-05-02T04:51:01.496Z,10.10
2017-05-02T04:53:30.555Z,10.50
2017-05-02T04:55:59.609Z,10.60
2017-05-02T04:58:29.536Z,10.30
2017-05-02T05:00:59.317Z,10.60
2017-05-02T05:03:28.386Z,10.50
2017-05-02T05:05:57.445Z,10.40
2017-05-02T05:08:26.502Z,10.50
2017-05-02T05:10:56.203Z,10.50
2017-05-02T05:13:25.328Z,10.50
2017-05-02T05:15:55.110Z,10.40
2017-05-02T05:18:24.170Z,10.50
2017-05-02T05:20:53.209Z,10.40
2017-05-02T05:23:22.266Z,10.50
2017-05-02T05:25:51.314Z,10.70
2017-05-02T05:28:21.111Z,10.50
2017-05-02T05:30:50.161Z,10.80
2017-05-02T05:33:19.307Z,10.50
2017-05-02T05:35:49.134Z,10.50
2017-05-02T05:38:18.950Z,10.80
2017-05-02T05:40:48.722Z,10.50
2017-05-02T05:43:17.789Z,10.50
2017-05-02T05:45:46.839Z,10.50
2017-05-02T05:48:17.373Z,10.40
2017-05-02T05:50:47.197Z,10.80
2017-05-02T05:53:16.261Z,10.90
2017-05-02T05:55:45.369Z,10.80
2017-05-02T05:58:15.182Z,10.80
2017-05-02T06:00:45.010Z,10.80
2017-05-02T06:03:14.808Z,10.60
2017-05-02T06:05:44.584Z,10.70
2017-05-02T06:08:13.675Z,10.70
2017-05-02T06:10:42.922Z,10.90
2017-05-02T06:13:12.705Z,10.80
2017-05-02T06:15:41.749Z,10.90
2017-05-02T06:18:10.815Z,11.00
2017-05-02T06:20:40.602Z,10.80
2017-05-02T06:23:09.662Z,10.80
2017-05-02T06:25:38.719Z,10.80
2017-05-02T06:28:07.773Z,10.80
2017-05-02T06:30:36.815Z,10.90
2017-05-02T06:33:05.878Z,10.90
2017-05-02T06:35:34.909Z,10.90
2017-05-02T06:38:03.990Z,10.90
2017-05-02T06:40:33.779Z,10.80
2017-05-02T06:43:02.853Z,10.80
2017-05-02T06:45:31.910Z,11.10
2017-05-02T06:48:00.983Z,11.20
2017-05-02T06:50:30.030Z,11.10
2017-05-02T06:52:59.182Z,11.20
2017-05-02T06:55:28.999Z,11.10
2017-05-02T06:57:58.069Z,11.20
2017-05-02T07:00:27.876Z,11.40
2017-05-02T07:02:57.669Z,11.30
2017-05-02T07:05:26.737Z,11.20
2017-05-02T07:07:55.794Z,11.20
2017-05-02T07:10:24.858Z,11.20
2017-05-02T07:12:55.105Z,11.20
2017-05-02T07:15:24.906Z,11.20
2017-05-02T07:17:54.724Z,11.20
2017-05-02T07:20:24.533Z,11.20
2017-05-02T07:22:54.334Z,11.20
2017-05-02T07:25:23.385Z,11.40
2017-05-02T07:27:52.434Z,11.40
2017-05-02T07:30:22.255Z,11.20
2017-05-02T07:32:51.376Z,11.30
2017-05-02T07:35:20.445Z,11.30
2017-05-02T07:37:49.494Z,11.30
2017-05-02T07:40:18.581Z,11.20
2017-05-02T07:42:47.627Z,11.20
2017-05-02T07:45:16.709Z,11.50
2017-05-02T07:47:46.497Z,11.50
2017-05-02T07:50:15.613Z,11.60
2017-05-02T07:52:45.440Z,11.70
2017-05-02T07:55:15.281Z,11.60
2017-05-02T07:57:44.319Z,11.60
2017-05-02T08:00:13.392Z,11.70
2017-05-02T08:02:42.444Z,11.90
2017-05-02T08:05:11.506Z,12.20
2017-05-02T08:07:40.581Z,12.00
2017-05-02T08:10:09.659Z,12.10
2017-05-02T08:12:38.712Z,12.60
2017-05-02T08:15:08.563Z,12.40
2017-05-02T08:17:37.599Z,12.90
2017-05-02T08:20:06.654Z,13.10
2017-05-02T08:22:35.707Z,13.10
2017-05-02T08:25:05.503Z,13.50
2017-05-02T08:27:34.620Z,13.60
2017-05-02T08:30:04.409Z,13.40
2017-05-02T08:32:34.194Z,13.30
2017-05-02T08:35:03.250Z,13.50
2017-05-02T08:37:32.296Z,13.30
2017-05-02T08:40:01.362Z,13.60
2017-05-02T08:42:30.414Z,13.50
2017-05-02T08:45:00.221Z,14.00
2017-05-02T08:47:30.303Z,14.00
2017-05-02T08:49:59.355Z,13.90
2017-05-02T08:52:28.394Z,13.90
2017-05-02T08:54:57.456Z,13.90
2017-05-02T08:57:26.502Z,14.00
2017-05-02T08:59:55.557Z,14.00
2017-05-02T09:02:24.604Z,13.80
2017-05-02T09:04:54.524Z,14.00
2017-05-02T09:07:24.302Z,13.90
2017-05-02T09:09:53.354Z,13.80
2017-05-02T09:12:22.389Z,14.00
2017-05-02T09:14:51.430Z,14.30
2017-05-02T09:17:20.601Z,14.10
2017-05-02T09:19:50.397Z,14.20
2017-05-02T09:22:19.471Z,14.30
2017-05-02T09:24:48.525Z,14.20
2017-05-02T09:27:17.590Z,14.00
2017-05-02T09:29:47.369Z,13.90
2017-05-02T09:32:16.466Z,13.90
2017-05-02T09:34:45.531Z,13.80
2017-05-02T09:37:14.600Z,13.80
2017-05-02T09:39:44.389Z,13.90
2017-05-02T09:42:13.454Z,13.90
2017-05-02T09:44:42.503Z,13.80
2017-05-02T09:47:12.308Z,13.80
2017-05-02T09:49:42.102Z,13.80
2017-05-02T09:52:11.177Z,13.80
2017-05-02T09:54:40.222Z,13.90
2017-05-02T09:57:09.298Z,13.90
2017-05-02T09:59:39.085Z,13.90
2017-05-02T10:02:08.141Z,14.50
2017-05-02T10:04:37.192Z,14.90
2017-05-02T10:07:07.005Z,15.80
2017-05-02T10:09:36.797Z,16.20
2017-05-02T10:12:05.864Z,16.40
2017-05-02T10:14:34.944Z,16.20
2017-05-02T10:17:03.997Z,16.50
2017-05-02T10:19:33.077Z,16.40
2017-05-02T10:22:02.157Z,16.50
2017-05-02T10:24:31.207Z,16.80
2017-05-02T10:27:00.296Z,17.70
2017-05-02T10:29:30.078Z,18.30
2017-05-02T10:31:59.171Z,18.00
2017-05-02T10:34:28.204Z,18.10
2017-05-02T10:36:57.985Z,18.00
2017-05-02T10:39:27.035Z,17.40
2017-05-02T10:41:56.102Z,18.00
2017-05-02T10:44:25.193Z,18.20
2017-05-02T10:46:54.962Z,18.20
2017-05-02T10:49:24.023Z,17.90
2017-05-02T10:51:53.057Z,17.70
2017-05-02T10:54:22.119Z,17.40
2017-05-02T10:56:51.157Z,16.90
2017-05-02T10:59:20.955Z,16.90
2017-05-02T11:01:49.985Z,16.30
2017-05-02T11:04:19.047Z,16.30
2017-05-02T11:06:48.084Z,16.30
2017-05-02T11:09:17.173Z,15.70
2017-05-02T11:11:46.972Z,15.80
2017-05-02T11:14:16.019Z,15.50
2017-05-02T11:16:45.155Z,15.60
2017-05-02T11:19:14.949Z,15.10
2017-05-02T11:21:44.062Z,15.20
2017-05-02T11:24:13.862Z,15.20
2017-05-02T11:26:42.905Z,15.00
2017-05-02T11:29:12.071Z,14.90
2017-05-02T11:31:41.901Z,14.90
2017-05-02T11:34:10.958Z,14.90
2017-05-02T11:36:40.009Z,15.00
2017-05-02T11:39:09.273Z,14.80
2017-05-02T11:41:39.030Z,14.80
2017-05-02T11:44:08.088Z,14.90
2017-05-02T11:46:37.140Z,14.60
2017-05-02T11:49:06.184Z,14.30
2017-05-02T11:51:35.220Z,14.40
2017-05-02T11:54:04.325Z,14.40
2017-05-02T11:56:33.365Z,14.40
2017-05-02T11:59:02.427Z,14.50
2017-05-02T12:01:32.253Z,14.90
2017-05-02T12:04:01.320Z,15.00
2017-05-02T12:06:30.361Z,14.70
2017-05-02T12:08:59.436Z,14.70
2017-05-02T12:11:29.210Z,14.90
2017-05-02T12:13:58.293Z,15.00
2017-05-02T12:16:27.338Z,15.30
2017-05-02T12:18:57.251Z,15.30
2017-05-02T12:21:26.288Z,15.30
2017-05-02T12:23:55.353Z,15.30
2017-05-02T12:26:24.391Z,15.00
2017-05-02T12:28:53.456Z,14.90
2017-05-02T12:31:22.510Z,14.60
2017-05-02T12:33:52.314Z,14.10
2017-05-02T12:36:21.365Z,14.00
2017-05-02T12:38:50.405Z,13.90
2017-05-02T12:41:19.461Z,13.90
2017-05-02T12:43:48.503Z,13.90
2017-05-02T12:46:18.383Z,13.90
2017-05-02T12:48:47.404Z,13.90
2017-05-02T12:51:17.434Z,14.40
2017-05-02T12:53:46.464Z,14.30
2017-05-02T12:56:15.639Z,14.40
2017-05-02T12:58:44.678Z,14.00
2017-05-02T13:01:13.796Z,13.90
2017-05-02T13:03:42.908Z,14.00
2017-05-02T13:06:11.946Z,14.10
2017-05-02T13:08:40.997Z,13.80
2017-05-02T13:11:10.806Z,14.10
2017-05-02T13:13:40.589Z,14.20
2017-05-02T13:16:09.686Z,14.40
2017-05-02T13:18:38.729Z,14.00
2017-05-02T13:21:07.820Z,14.40
2017-05-02T13:23:37.003Z,14.40
2017-05-02T13:26:06.064Z,14.40
2017-05-02T13:28:35.114Z,14.00
2017-05-02T13:31:04.188Z,14.00
2017-05-02T13:33:33.233Z,13.90
2017-05-02T13:36:02.287Z,14.00
2017-05-02T13:38:31.353Z,13.50
2017-05-02T13:41:01.147Z,13.50
2017-05-02T13:43:30.219Z,13.50
2017-05-02T13:45:59.285Z,13.50
2017-05-02T13:48:28.346Z,13.30
2017-05-02T13:50:58.130Z,13.10
2017-05-02T13:53:27.267Z,13.50
2017-05-02T13:55:57.034Z,13.00
2017-05-02T13:58:26.091Z,13.20
2017-05-02T14:00:55.134Z,13.40
2017-05-02T14:03:24.198Z,13.50
2017-05-02T14:05:53.240Z,13.10
2017-05-02T14:08:23.035Z,13.50
2017-05-02T14:10:52.082Z,13.40
2017-05-02T14:13:21.134Z,13.20
2017-05-02T14:15:50.178Z,12.90
2017-05-02T14:18:19.277Z,13.40
2017-05-02T14:20:49.035Z,12.90
2017-05-02T14:23:18.135Z,12.80
2017-05-02T14:25:47.956Z,13.10
2017-05-02T14:28:17.765Z,13.00
2017-05-02T14:30:47.580Z,12.90
2017-05-02T14:33:17.394Z,12.90
2017-05-02T14:35:47.194Z,13.10
2017-05-02T14:38:17.281Z,12.60
2017-05-02T14:40:46.409Z,12.80
2017-05-02T14:43:16.225Z,12.50
2017-05-02T14:45:46.009Z,12.40
2017-05-02T14:48:15.135Z,12.10
2017-05-02T14:50:44.989Z,12.30
2017-05-02T14:53:14.038Z,12.20
2017-05-02T14:55:43.983Z,12.00
2017-05-02T14:58:13.057Z,12.30
2017-05-02T15:00:42.179Z,12.30
2017-05-02T15:03:11.283Z,11.90
2017-05-02T15:05:40.349Z,11.60
2017-05-02T15:08:09.410Z,11.90
2017-05-02T15:10:38.474Z,11.70
2017-05-02T15:13:07.529Z,11.60
2017-05-02T15:15:36.623Z,11.60
2017-05-02T15:18:05.680Z,11.90
2017-05-02T15:20:34.740Z,11.70
2017-05-02T15:23:03.781Z,11.70
2017-05-02T15:25:33.594Z,11.50
2017-05-02T15:28:02.711Z,11.20
2017-05-02T15:30:31.800Z,11.30
2017-05-02T15:33:01.597Z,11.20
2017-05-02T15:35:31.424Z,11.30
2017-05-02T15:38:01.213Z,11.20
2017-05-02T15:40:30.326Z,11.30
2017-05-02T15:43:00.120Z,11.20
2017-05-02T15:45:29.178Z,11.20
2017-05-02T15:47:58.219Z,11.20
2017-05-02T15:50:28.271Z,10.80
2017-05-02T15:52:57.311Z,11.00
2017-05-02T15:55:28.616Z,10.70
2017-05-02T15:57:57.646Z,10.60
2017-05-02T16:00:26.782Z,10.70
2017-05-02T16:02:55.865Z,10.50
2017-05-02T16:05:25.673Z,10.60
2017-05-02T16:07:54.759Z,10.80
2017-05-02T16:10:23.824Z,10.90
2017-05-02T16:12:52.923Z,10.90
2017-05-02T16:15:21.991Z,11.10
2017-05-02T16:17:51.029Z,11.20
2017-05-02T16:20:20.088Z,11.20
2017-05-02T16:22:49.125Z,11.20
2017-05-02T16:25:18.197Z,11.20
2017-05-02T16:27:47.266Z,10.90
2017-05-02T16:30:16.318Z,11.10
2017-05-02T16:32:46.094Z,10.70
2017-05-02T16:35:15.153Z,11.10
2017-05-02T16:37:44.197Z,11.20
2017-05-02T16:40:13.349Z,11.20
2017-05-02T16:42:42.380Z,11.10
2017-05-02T16:45:11.516Z,11.20
2017-05-02T16:47:40.550Z,11.10
2017-05-02T16:50:09.585Z,11.20
2017-05-02T16:52:38.641Z,11.20
2017-05-02T16:55:07.701Z,10.90
2017-05-02T16:57:36.762Z,10.80
2017-05-02T17:00:05.879Z,10.80
2017-05-02T17:02:34.906Z,10.90
2017-05-02T17:05:03.981Z,10.90
2017-05-02T17:07:33.074Z,10.80
2017-05-02T17:10:02.117Z,10.80
2017-05-02T17:12:31.383Z,10.80
2017-05-02T17:15:00.847Z,10.80
2017-05-02T17:17:29.889Z,10.80
2017-05-02T17:19:59.003Z,10.80
2017-05-02T17:22:28.062Z,10.90
2017-05-02T17:24:57.104Z,10.50
2017-05-02T17:27:27.050Z,10.70
2017-05-02T17:29:56.873Z,10.80
2017-05-02T17:32:26.666Z,10.80
2017-05-02T17:34:56.632Z,10.40
2017-05-02T17:37:25.769Z,10.80
2017-05-02T17:39:54.803Z,10.50
2017-05-02T17:42:23.870Z,10.40
2017-05-02T17:44:53.641Z,10.40
2017-05-02T17:47:23.394Z,10.50
2017-05-02T17:49:53.294Z,10.60
2017-05-02T17:52:22.367Z,10.50
2017-05-02T17:54:51.721Z,10.50
2017-05-02T17:57:20.767Z,10.40
2017-05-02T17:59:49.902Z,10.60
2017-05-02T18:02:19.685Z,10.60
2017-05-02T18:04:49.509Z,10.80
2017-05-02T18:07:19.436Z,10.50
2017-05-02T18:09:49.227Z,10.50
2017-05-02T18:12:19.167Z,10.70
2017-05-02T18:14:49.108Z,10.60
2017-05-02T18:17:18.205Z,10.50
2017-05-02T18:19:47.371Z,10.30
2017-05-02T18:22:16.429Z,10.30
2017-05-02T18:24:45.502Z,10.00
2017-05-02T18:27:15.090Z,10.20
2017-05-02T18:29:44.239Z,10.10
2017-05-02T18:32:13.355Z,10.10
2017-05-02T18:34:42.482Z,10.20
2017-05-02T18:37:11.539Z,10.40
2017-05-02T18:39:41.325Z,10.30
2017-05-02T18:42:10.411Z,10.50
2017-05-02T18:44:39.464Z,10.20
2017-05-02T18:47:08.513Z,10.20
2017-05-02T18:49:37.598Z,10.10
2017-05-02T18:52:06.891Z,10.20
2017-05-02T18:54:35.941Z,10.20
2017-05-02T18:57:04.993Z,10.20
2017-05-02T18:59:34.058Z,10.30
2017-05-02T19:02:03.402Z,10.20
2017-05-02T19:04:32.492Z,10.10
2017-05-02T19:07:01.553Z,10.00
2017-05-02T19:09:30.667Z,9.80
2017-05-02T19:11:59.717Z,10.00
2017-05-02T19:14:28.814Z,10.20
2017-05-02T19:16:57.895Z,10.10
2017-05-02T19:19:26.978Z,10.00
2017-05-02T19:21:56.788Z,10.00
2017-05-02T19:24:26.603Z,10.10
2017-05-02T19:26:56.426Z,10.30
2017-05-02T19:29:25.490Z,10.00
2017-05-02T19:31:55.325Z,10.00
2017-05-02T19:34:24.387Z,9.80
2017-05-02T19:36:53.457Z,9.80
2017-05-02T19:39:22.508Z,10.10
2017-05-02T19:41:52.340Z,9.60
2017-05-02T19:44:21.384Z,10.00
2017-05-02T19:46:50.449Z,10.30
2017-05-02T19:49:19.500Z,10.00
2017-05-02T19:51:48.635Z,9.70
2017-05-02T19:54:17.665Z,9.80
2017-05-02T19:56:46.826Z,10.10
2017-05-02T19:59:15.947Z,10.20
2017-05-02T20:01:44.980Z,9.70
2017-05-02T20:04:14.770Z,9.80
2017-05-02T20:06:43.801Z,9.90
2017-05-02T20:09:12.990Z,9.70
2017-05-02T20:11:42.043Z,9.60
2017-05-02T20:14:11.098Z,9.90
2017-05-02T20:16:40.133Z,9.90
2017-05-02T20:19:09.539Z,9.80
2017-05-02T20:21:39.570Z,9.80
2017-05-02T20:24:09.728Z,9.80
2017-05-02T20:26:38.937Z,9.80
2017-05-02T20:29:07.998Z,9.80
2017-05-02T20:31:37.059Z,9.80
2017-05-02T20:34:07.140Z,9.90
2017-05-02T20:36:36.178Z,10.00
2017-05-02T20:39:05.267Z,10.10
2017-05-02T20:41:34.374Z,9.90
2017-05-02T20:44:04.173Z,9.80
2017-05-02T20:46:33.315Z,9.70
2017-05-02T20:49:02.365Z,9.60
2017-05-02T20:51:31.465Z,9.90
2017-05-02T20:54:00.565Z,9.90
2017-05-02T20:56:30.369Z,9.90
2017-05-02T20:59:02.654Z,9.70
2017-05-02T21:01:31.685Z,9.60
2017-05-02T21:04:00.745Z,9.70
2017-05-02T21:06:30.525Z,9.80
2017-05-02T21:08:59.587Z,9.70
2017-05-02T21:11:28.620Z,9.80
2017-05-02T21:13:57.678Z,9.50
2017-05-02T21:16:26.721Z,9.60
2017-05-02T21:18:55.785Z,9.70
2017-05-02T21:21:24.829Z,9.60
2017-05-02T21:23:53.858Z,9.80
2017-05-02T21:26:23.011Z,9.40
2017-05-02T21:28:52.049Z,9.70
2017-05-02T21:31:21.098Z,9.80
2017-05-02T21:33:50.875Z,9.40
2017-05-02T21:36:20.000Z,9.80
2017-05-02T21:38:49.816Z,9.70
2017-05-02T21:41:19.600Z,9.60
2017-05-02T21:43:48.706Z,9.70
2017-05-02T21:46:17.757Z,9.90
2017-05-02T21:48:47.909Z,9.90
2017-05-02T21:51:16.985Z,10.00
2017-05-02T21:53:46.006Z,9.80
2017-05-02T21:56:15.065Z,10.20
2017-05-02T21:58:44.212Z,10.10
2017-05-02T22:01:14.000Z,9.80
2017-05-02T22:03:43.111Z,9.70
2017-05-02T22:06:12.915Z,9.60
2017-05-02T22:08:41.979Z,9.90
2017-05-02T22:11:11.112Z,9.70
2017-05-02T22:13:40.898Z,10.10
2017-05-02T22:16:10.019Z,10.10
2017-05-02T22:18:39.800Z,10.20
2017-05-02T22:21:08.858Z,10.20
2017-05-02T22:23:37.909Z,10.10
2017-05-02T22:26:06.961Z,10.00
2017-05-02T22:28:36.005Z,10.20
2017-05-02T22:31:05.802Z,10.20
2017-05-02T22:33:34.868Z,10.00
2017-05-02T22:36:03.940Z,10.00
2017-05-02T22:38:32.982Z,9.60
2017-05-02T22:41:02.023Z,9.80
2017-05-02T22:43:31.057Z,9.60
2017-05-02T22:46:00.113Z,9.90
2017-05-02T22:48:29.185Z,9.70
2017-05-02T22:50:58.975Z,9.80
2017-05-02T22:53:28.011Z,9.80
2017-05-02T22:55:57.050Z,10.20
2017-05-02T22:58:26.105Z,10.00
2017-05-02T23:00:55.149Z,10.10
2017-05-02T23:03:24.201Z,10.10
2017-05-02T23:05:53.242Z,9.90
2017-05-02T23:08:22.346Z,9.60
2017-05-02T23:10:52.126Z,9.80
2017-05-02T23:13:21.173Z,10.00
2017-05-02T23:15:50.805Z,9.60
2017-05-02T23:18:19.865Z,9.90
2017-05-02T23:20:48.880Z,10.00
2017-05-02T23:23:17.937Z,10.10
2017-05-02T23:25:47.721Z,10.10
2017-05-02T23:28:16.778Z,10.10
2017-05-02T23:30:45.821Z,9.80
2017-05-02T23:33:14.877Z,9.70
2017-05-02T23:35:43.910Z,9.80
2017-05-02T23:38:12.974Z,9.70
2017-05-02T23:40:42.121Z,9.60
2017-05-02T23:43:11.916Z,9.70
2017-05-02T23:45:41.022Z,9.80
2017-05-02T23:48:10.094Z,9.70
2017-05-02T23:50:39.198Z,10.20
2017-05-02T23:53:08.261Z,10.10
2017-05-02T23:55:37.305Z,10.10
2017-05-02T23:58:07.101Z,10.00
